Latest Coastal Weather Observations for East Sale

IDV60701

Issued at 12:11 am EDT Sunday 22 January 2017 (issued every 10 minutes, with the page automatically refreshed every 10 minutes)

About coastal observations | Map of coastal stations | Coastal observations for VIC | Marine services | Other Formats
Station Details ID: 085072 Name: EAST SALE AIRPORT Lat: -38.12 Lon: 147.13 Height: 4.6 m
Data from the previous 72 hours. | See also: Recent months at East Sale
Date/Time
EDT
Temp
°C
Wind Pressure Rain since
9am
mm
Weather Cloud Vis
km
Sea
Height
m
Swell
Dir  Spd
kts
Gust
kts
hPa Trend Height
m
Period
s
Dir
22/12:00am 13.6 NNW 3 4 1017.2 R 0.0 - Mostly clear 10 - - - -
 
Date/Time
EDT
Temp
°C
Wind Pressure Rain since
9am
mm
Weather Cloud Vis
km
Sea
Height
m
Swell
Dir  Spd
kts
Gust
kts
hPa Trend Height
m
Period
s
Dir
21/11:30pm 14.0 E 4 4 1017.3 - 0.0 - Partly cloudy 10 - - - -
21/11:00pm 14.3 E 4 5 1017.3 - 0.0 - - 10 - - - -
21/10:30pm 14.4 E 5 6 1017.4 - 0.0 - - 10 - - - -
21/10:00pm 15.2 ESE 6 7 1017.2 - 0.0 - - 10 - - - -
21/09:30pm 15.8 ESE 6 7 1017.1 - 0.0 - - 10 - - - -
21/09:00pm 16.4 ESE 7 8 1016.7 R 0.0 - - 10 - - - -
21/08:30pm 17.4 E 8 9 1016.4 - 0.0 - - 10 - - - -
21/08:00pm 18.1 ESE 9 11 1016.0 - 0.0 - - 10 - - - -
21/07:30pm 18.9 SE 9 13 1015.6 - 0.0 - Partly cloudy 10 - - - -
21/07:00pm 20.5 SE 12 15 1015.1 - 0.0 - Partly cloudy 10 - - - -
21/06:30pm 21.1 ESE 12 15 1014.8 - 0.0 - - 10 - - - -
21/06:00pm 21.1 ESE 12 17 1014.7 F 0.0 - Mostly clear 10 - - - -
21/05:30pm 21.3 ESE 13 18 1014.8 - 0.0 - Partly cloudy 10 - - - -
21/05:00pm 22.2 ESE 13 18 1014.7 - 0.0 - Partly cloudy 10 - - - -
21/04:30pm 21.5 SE 11 16 1014.6 - 0.0 - Partly cloudy 10 - - - -
21/04:00pm 22.5 ESE 9 15 1014.5 - 0.0 - Partly cloudy 10 - - - -
21/03:30pm 23.6 N 5 8 1014.5 - 0.0 - Cloudy 10 - - - -
21/03:00pm 22.4 NE 4 7 1014.5 R 0.0 - Mostly cloudy 10 - - - -
21/02:30pm 22.0 W 8 12 1014.7 - 0.0 - Cloudy 10 - - - -
21/02:00pm 21.7 WSW 4 7 1014.7 - 0.0 - Partly cloudy 10 - - - -
21/01:30pm 21.9 WSW 9 15 1014.6 - 0.0 - Partly cloudy 10 - - - -
21/01:00pm 21.2 W 9 15 1014.8 - 0.0 - Partly cloudy 10 - - - -
21/12:30pm 21.5 W 11 16 1014.7 - 0.0 - Partly cloudy 10 - - - -
21/12:00pm 20.7 W 8 13 1014.8 R 0.0 - Partly cloudy 10 - - - -
21/11:30am 19.1 W 7 15 1014.9 - 0.0 - Partly cloudy 10 - - - -
21/11:00am 19.6 SW 8 13 1014.8 - 0.0 - Partly cloudy 10 - - - -
21/10:30am 18.0 W 10 17 1014.7 - 0.0 - Partly cloudy 10 - - - -
21/10:00am 17.2 W 12 16 1014.5 - 0.0 - Partly cloudy 10 - - - -
21/09:30am 17.2 W 11 16 1014.2 - 0.0 - Partly cloudy 10 - - - -
21/09:00am 16.6 W 13 19 1014.1 R 1.4 - Mostly clear 10 - - - -
21/08:30am 16.1 W 13 18 1013.8 - 1.4 - - 10 - - - -
21/08:00am 15.4 WNW 11 14 1013.4 - 1.4 - - 10 - - - -
21/07:30am 13.7 NW 7 9 1013.0 - 1.4 - Partly cloudy 10 - - - -
21/07:00am 14.2 W 8 11 1012.4 - 1.4 - Cloudy 10 - - - -
21/06:30am 14.1 WNW 9 12 1012.0 - 1.4 - Cloudy 10 - - - -
21/06:00am 13.9 WNW 7 9 1011.6 R 1.4 - Cloudy 10 - - - -
21/05:30am 13.9 W 11 14 1011.1 - 1.4 - Cloudy 10 - - - -
21/05:00am 13.5 W 12 15 1010.6 - 1.4 - Partly cloudy 10 - - - -
21/04:30am 13.9 WNW 12 15 1010.1 - 1.4 - Cloudy 10 - - - -
21/04:00am 14.1 W 11 14 1009.8 - 1.4 - Partly cloudy 10 - - - -
21/03:30am 14.6 W 13 17 1009.4 - 1.4 - Cloudy 10 - - - -
21/03:00am 14.7 W 12 16 1009.2 R 1.4 - Cloudy 10 - - - -
21/02:30am 14.7 W 11 16 1009.0 - 1.4 - Cloudy 10 - - - -
21/02:00am 14.7 W 11 15 1008.9 - 1.4 - Cloudy 10 - - - -
21/01:30am 14.7 WSW 9 11 1008.7 - 1.4 - Cloudy 10 - - - -
21/01:00am 14.7 WSW 10 15 1008.6 - 1.4 - Cloudy 10 - - - -
21/12:30am 14.4 W 10 15 1008.2 - 1.4 - Partly cloudy 10 - - - -
21/12:00am 14.8 WSW 9 13 1008.0 R 1.4 - Partly cloudy 10 - - - -
 
Date/Time
EDT
Temp
°C
Wind Pressure Rain since
9am
mm
Weather Cloud Vis
km
Sea
Height
m
Swell
Dir  Spd
kts
Gust
kts
hPa Trend Height
m
Period
s
Dir
20/11:30pm 15.2 W 11 16 1007.8 - 1.4 - Partly cloudy 10 - - - -
20/11:00pm 15.6 W 12 18 1007.7 - 1.4 - Partly cloudy 10 - - - -
20/10:30pm 15.6 W 11 15 1007.6 - 1.4 - Partly cloudy 10 - - - -
20/10:00pm 16.3 W 12 17 1007.2 - 1.4 - Cloudy 10 - - - -
20/09:30pm 16.6 W 13 18 1006.7 - 1.4 - Cloudy 10 - - - -
20/09:00pm 17.3 W 12 16 1006.0 R 1.4 - Mostly cloudy 10 - - - -
20/08:30pm 17.9 WSW 12 18 1005.3 - 1.4 - Partly cloudy 10 - - - -
20/08:00pm 18.3 WSW 13 17 1004.8 - 1.4 - Partly cloudy 10 - - - -
20/07:30pm 18.9 WSW 17 24 1004.0 - 1.4 - Partly cloudy 10 - - - -
20/07:00pm 19.5 WSW 18 28 1003.0 - 1.4 - Cloudy 10 - - - -
20/06:30pm 19.9 WSW 20 30 1002.1 - 1.4 - Partly cloudy 10 - - - -
20/06:04pm 20.2 WSW 18 28 1001.5 - 1.4 - Partly cloudy 10 - - - -
20/06:00pm 20.2 WSW 19 26 1001.4 R 1.4 - Cloudy 10 - - - -
20/05:30pm 19.8 W 20 28 1000.5 - 1.4 - Partly cloudy 10 - - - -
20/05:00pm 20.4 W 21 31 999.7 - 1.4 - Partly cloudy 10 - - - -
20/04:43pm 20.2 WSW 22 32 999.2 - 1.4 - Partly cloudy 10 - - - -
20/04:30pm 19.8 W 23 30 999.0 - 1.4 - Partly cloudy 10 - - - -
20/04:00pm 21.2 WSW 25 39 998.3 - 1.4 - Partly cloudy 10 - - - -
20/03:30pm 20.1 WSW 27 37 998.1 - 1.4 - Partly cloudy 10 - - - -
20/03:00pm 19.7 W 29 45 997.0 R 1.4 - Partly cloudy 10 - - - -
20/02:30pm 20.3 W 23 33 996.9 - 1.4 - Partly cloudy 10 - - - -
20/02:12pm 19.6 W 27 45 996.8 - 1.4 - Partly cloudy 10 - - - -
20/02:00pm 19.4 W 21 31 996.8 - 1.4 - Partly cloudy 10 - - - -
20/01:30pm 19.9 W 27 39 995.8 - 1.4 - Partly cloudy 10 - - - -
20/01:00pm 19.6 W 30 43 994.5 - 1.4 - Partly cloudy 10 - - - -
20/12:30pm 21.3 W 29 40 993.4 - 1.4 - Partly cloudy 10 - - - -
20/12:00pm 20.2 W 24 33 993.5 R 1.4 - Cloudy 10 - - - -
20/11:40am 20.2 WSW 25 35 993.4 - 1.4 - Partly cloudy 10 - - - -
20/11:30am 20.3 WSW 24 41 993.2 - 1.4 - Partly cloudy 10 - - - -
20/11:23am 19.8 WSW 19 32 993.2 - 1.4 - Partly cloudy 10 - - - -
20/11:11am 20.5 WSW 15 26 992.8 - 1.4 - Partly cloudy 10 - - - -
20/11:00am 19.6 W 12 21 992.6 - 1.4 - Mostly clear 10 - - - -
20/10:30am 19.1 W 7 13 992.6 - 1.4 - Mostly clear 10 - - - -
20/10:00am 18.1 NW 4 5 992.4 - 1.4 - Mostly clear 10 - - - -
20/09:30am 17.4 NNE 6 9 992.4 - 1.2 Rain Partly cloudy 8 - - - -
20/09:18am 17.4 NNE 7 10 992.2 - 0.6 Rain Partly cloudy 5 - - - -
20/09:00am 17.3 NNE 8 11 991.7 F 7.2 Rain Cloudy 8 - - - -
20/08:30am 17.1 ENE 8 11 992.0 - 6.4 - Partly cloudy 10 - - - -
20/08:00am 16.8 NE 12 16 992.5 - 6.4 - Partly cloudy 10 - - - -
20/07:59am 16.7 NE 12 16 992.6 - 6.4 - Partly cloudy 9 - - - -
20/07:30am 16.8 NNE 8 10 994.6 - 6.0 Rain Mostly clear 7 - - - -
20/07:00am 16.8 NNE 5 7 995.1 - 5.6 - Mostly clear 6 - - - -
20/06:45am 16.8 NW 6 7 996.1 - 5.0 - Partly cloudy 6 - - - -
20/06:41am 16.8 WNW 6 7 996.5 - 4.8 - Partly cloudy 7 - - - -
20/06:30am 16.8 W 5 6 996.4 - 4.0 - Partly cloudy 6 - - - -
20/06:00am 16.9 W 7 11 997.4 R 2.2 Rain Cloudy 8 - - - -
20/05:30am 17.3 W 9 13 998.1 - 1.0 - Cloudy 10 - - - -
20/05:00am 17.5 NW 7 10 997.8 - 0.2 - Partly cloudy 10 - - - -
20/04:30am 17.5 WSW 7 10 998.1 - 0.2 - Partly cloudy 10 - - - -
20/04:00am 17.4 SW 15 21 999.0 - 0.2 - Partly cloudy 10 - - - -
20/03:49am 17.1 WSW 12 20 999.4 - 0.0 - Partly cloudy 10 - - - -
20/03:30am 17.0 WNW 6 8 997.2 - 0.0 - Partly cloudy 10 - - - -
20/03:00am 16.9 CALM 0 0 996.7 F 0.0 - Mostly cloudy 10 - - - -
20/02:30am 16.8 SW 3 6 997.8 - 0.0 - - 10 - - - -
20/02:00am 16.5 WSW 5 6 998.6 - 0.0 - - 10 - - - -
20/01:30am 16.1 WSW 3 4 998.9 - 0.0 - - 10 - - - -
20/01:00am 16.0 W 6 7 999.4 - 0.0 - - 10 - - - -
20/12:30am 17.1 S 4 5 999.9 - 0.0 - - 10 - - - -
20/12:00am 17.5 SE 5 6 1000.5 F 0.0 - Mostly clear 10 - - - -
 
Date/Time
EDT
Temp
°C
Wind Pressure Rain since
9am
mm
Weather Cloud Vis
km
Sea
Height
m
Swell
Dir  Spd
kts
Gust
kts
hPa Trend Height
m
Period
s
Dir
19/11:30pm 18.3 S 4 5 1002.1 - 0.0 - - 10 - - - -
19/11:00pm 18.5 SE 5 6 1003.1 - 0.0 - - 10 - - - -
19/10:30pm 18.4 ESE 6 8 1003.7 - 0.0 - - 10 - - - -
19/10:00pm 18.4 SE 7 10 1005.1 - 0.0 - - 10 - - - -
19/09:30pm 18.8 SE 7 9 1006.0 - 0.0 - Partly cloudy 10 - - - -
19/09:00pm 18.7 ESE 8 11 1006.2 F 0.0 - Mostly clear 10 - - - -
19/08:58pm 18.7 ESE 9 11 1006.3 - 0.0 - Partly cloudy 10 - - - -
19/08:40pm 18.6 ESE 10 12 1006.5 - 0.0 - Partly cloudy 10 - - - -
19/08:30pm 18.8 ESE 10 13 1006.9 - 0.0 - Partly cloudy 10 - - - -
19/08:00pm 19.6 ESE 13 16 1006.9 - 0.0 - Partly cloudy 10 - - - -
19/07:30pm 20.5 E 14 19 1007.0 - 0.0 - - 10 - - - -
19/07:00pm 20.7 E 16 20 1007.0 - 0.0 - - 10 - - - -
19/06:30pm 21.4 E 16 20 1007.7 - 0.0 - Partly cloudy 10 - - - -
19/06:00pm 20.9 E 17 21 1008.2 F 0.0 - Mostly clear 10 - - - -
19/05:30pm 21.6 E 17 22 1008.2 - 0.0 - - 10 - - - -
19/05:00pm 22.1 E 18 23 1008.7 - 0.0 - - 10 - - - -
19/04:30pm 22.5 E 17 23 1009.3 - 0.0 - Mostly clear 10 - - - -
19/04:00pm 21.9 E 17 25 1009.9 - 0.0 - Mostly clear 10 - - - -
19/03:30pm 20.9 E 17 22 1010.6 - 0.0 - Mostly clear 10 - - - -
19/03:00pm 22.4 E 17 22 1011.0 F 0.0 - Mostly clear 10 - - - -
19/02:30pm 21.7 E 16 23 1011.5 - 0.0 - Mostly clear 10 - - - -
19/02:00pm 21.1 E 16 23 1012.1 - 0.0 - Mostly clear 10 - - - -
19/01:30pm 20.4 E 16 21 1012.4 - 0.0 - Mostly clear 10 - - - -
19/01:00pm 20.8 E 16 20 1012.8 - 0.0 - Mostly clear 10 - - - -
19/12:30pm 20.6 E 16 21 1013.2 - 0.0 - Partly cloudy 10 - - - -
19/12:00pm 20.4 ESE 15 22 1013.5 F 0.0 - Partly cloudy 10 - - - -
19/11:30am 20.2 ESE 14 19 1013.8 - 0.0 - Partly cloudy 10 - - - -
19/11:00am 19.8 E 13 19 1014.1 - 0.0 - Partly cloudy 10 - - - -
19/10:30am 19.1 E 12 17 1014.4 - 0.0 - Mostly clear 10 - - - -
19/10:00am 18.8 E 11 14 1014.8 - 0.0 - Mostly clear 10 - - - -
19/09:30am 16.7 E 7 11 1015.0 - 0.0 - Mostly clear 10 - - - -
19/09:00am 15.1 SSE 3 6 1015.4 F 0.0 - - 10 - - - -
19/08:30am 13.6 W 3 5 1015.6 - 0.0 - - 10 - - - -
19/08:00am 11.7 NW 4 6 1015.9 - 0.0 - - 10 - - - -
19/07:30am 10.1 NW 5 6 1015.9 - 0.0 - - 10 - - - -
19/07:00am 9.3 NW 5 6 1015.8 - 0.0 - Mostly clear 10 - - - -
19/06:30am 8.0 NW 6 7 1015.6 - 0.0 - - 10 - - - -
19/06:00am 8.0 NNW 3 4 1015.3 F 0.0 - - 10 - - - -
19/05:30am 8.1 CALM 0 0 1015.2 - 0.0 - - 10 - - - -
19/05:00am 7.8 CALM 0 2 1015.3 - 0.0 - - 10 - - - -
19/04:30am 8.2 WNW 5 6 1015.4 - 0.0 - - 10 - - - -
19/04:00am 8.7 NW 4 6 1015.4 - 0.0 - - 10 - - - -
19/03:30am 8.6 NW 4 5 1015.7 - 0.0 - - 10 - - - -
19/03:00am 9.1 WNW 5 6 1015.8 F 0.0 - - 10 - - - -
19/02:30am 9.1 WNW 6 7 1016.2 - 0.0 - - 10 - - - -
19/02:00am 9.9 NW 5 7 1016.6 - 0.0 - - 10 - - - -
19/01:30am 10.1 NW 4 6 1016.8 - 0.0 - - 10 - - - -
19/01:00am 10.2 NNW 5 5 1017.1 - 0.0 - - 10 - - - -
19/12:30am 10.8 NW 4 5 1017.2 - 0.0 - - 10 - - - -

Other Formats:

Comma delimited format used in spreadsheet applications
http://www.bom.gov.au/fwo/IDV60701/IDV60701.94907.axf

JavaScript Object Notation format (JSON) in row-major order
http://www.bom.gov.au/fwo/IDV60701/IDV60701.94907.json